createdAt,value
2023-01-13T00:00:20.613Z,99532.00
2023-01-13T00:05:44.569Z,99528.80
2023-01-13T00:10:51.437Z,99522.40
2023-01-13T00:16:05.249Z,99508.40
2023-01-13T00:21:15.609Z,99507.40
2023-01-13T00:26:26.842Z,99502.20
2023-01-13T00:31:31.522Z,99501.00
2023-01-13T00:36:35.407Z,99509.60
2023-01-13T00:41:57.978Z,99509.00
2023-01-13T00:47:02.246Z,99505.40
2023-01-13T00:52:06.345Z,99503.40
2023-01-13T00:57:10.338Z,99499.20
2023-01-13T01:02:14.182Z,99496.00
2023-01-13T01:07:18.181Z,99491.60
2023-01-13T01:12:21.937Z,99491.00
2023-01-13T01:17:25.832Z,99482.60
2023-01-13T01:22:29.610Z,99475.60
2023-01-13T01:27:33.348Z,99470.80
2023-01-13T01:32:36.938Z,99466.00
2023-01-13T01:37:40.664Z,99459.60
2023-01-13T01:43:02.727Z,99449.00
2023-01-13T01:48:08.488Z,99448.20
2023-01-13T01:53:21.772Z,99442.20
2023-01-13T01:58:42.624Z,99438.40
2023-01-13T02:03:58.278Z,99432.60
2023-01-13T02:09:02.203Z,99422.80
2023-01-13T02:14:06.093Z,99416.40
2023-01-13T02:19:21.833Z,99411.60
2023-01-13T02:25:10.615Z,99406.20
2023-01-13T02:30:48.322Z,99399.00
2023-01-13T02:36:13.050Z,99396.00
2023-01-13T02:41:51.417Z,99388.60
2023-01-13T02:47:20.608Z,99389.20
2023-01-13T02:52:36.617Z,99380.40
2023-01-13T02:57:43.360Z,99380.40
2023-01-13T03:02:49.289Z,99371.60
2023-01-13T03:08:04.420Z,99366.20
2023-01-13T03:14:04.679Z,99361.20
2023-01-13T03:19:49.040Z,99359.40
2023-01-13T03:25:07.809Z,99353.40
2023-01-13T03:30:29.871Z,99348.80
2023-01-13T03:35:44.475Z,99345.60
2023-01-13T03:41:01.677Z,99338.40
2023-01-13T03:46:27.275Z,99331.80
2023-01-13T03:51:34.386Z,99329.60
2023-01-13T03:56:59.909Z,99329.80
2023-01-13T04:02:20.077Z,99321.40
2023-01-13T04:07:48.422Z,99326.00
2023-01-13T04:13:08.344Z,99330.60
2023-01-13T04:18:26.504Z,99323.60
2023-01-13T04:23:30.314Z,99316.60
2023-01-13T04:28:35.411Z,99311.80
2023-01-13T04:33:39.091Z,99322.00
2023-01-13T04:38:42.906Z,99313.20
2023-01-13T04:43:46.481Z,99309.80
2023-01-13T04:48:50.227Z,99313.00
2023-01-13T04:53:53.866Z,99315.00
2023-01-13T04:58:57.459Z,99317.60
2023-01-13T05:04:01.175Z,99316.40
2023-01-13T05:09:04.963Z,99310.80
2023-01-13T05:14:27.801Z,99313.60
2023-01-13T05:19:35.384Z,99315.00
2023-01-13T05:24:57.736Z,99316.60
2023-01-13T05:30:02.070Z,99318.40
2023-01-13T05:35:05.961Z,99311.00
2023-01-13T05:40:31.888Z,99318.60
2023-01-13T05:45:35.629Z,99312.60
2023-01-13T05:50:40.264Z,99314.20
2023-01-13T05:55:45.797Z,99321.80
2023-01-13T06:00:50.490Z,99324.20
2023-01-13T06:05:59.128Z,99322.40
2023-01-13T06:11:03.453Z,99320.60
2023-01-13T06:16:07.671Z,99324.60
2023-01-13T06:21:11.678Z,99322.20
2023-01-13T06:26:22.448Z,99321.80
2023-01-13T06:31:29.102Z,99325.60
2023-01-13T06:36:56.537Z,99326.40
2023-01-13T06:42:18.932Z,99331.80
2023-01-13T06:47:22.830Z,99328.00
2023-01-13T06:52:27.902Z,99327.20
2023-01-13T06:57:31.441Z,99330.20
2023-01-13T07:02:35.128Z,99340.40
2023-01-13T07:07:40.306Z,99338.60
2023-01-13T07:13:03.024Z,99350.40
2023-01-13T07:18:07.192Z,99352.60
2023-01-13T07:23:11.083Z,99353.80
2023-01-13T07:28:15.060Z,99352.40
2023-01-13T07:33:19.271Z,99357.20
2023-01-13T07:38:23.071Z,99360.80
2023-01-13T07:43:33.118Z,99358.80
2023-01-13T07:48:37.188Z,99366.80
2023-01-13T07:53:41.502Z,99369.60
2023-01-13T07:58:50.637Z,99368.20
2023-01-13T08:03:56.697Z,99368.40
2023-01-13T08:09:00.284Z,99370.20
2023-01-13T08:14:04.242Z,99386.60
2023-01-13T08:19:08.150Z,99386.20
2023-01-13T08:24:12.218Z,99392.40
2023-01-13T08:29:15.867Z,99393.60
2023-01-13T08:34:19.833Z,99391.00
2023-01-13T08:39:25.957Z,99396.20
2023-01-13T08:44:32.713Z,99397.60
2023-01-13T08:49:36.428Z,99399.20
2023-01-13T08:54:40.923Z,99406.00
2023-01-13T08:59:45.334Z,99412.40
2023-01-13T09:04:50.322Z,99419.60
2023-01-13T09:09:54.189Z,99420.20
2023-01-13T09:14:58.648Z,99420.00
2023-01-13T09:20:02.505Z,99424.60
2023-01-13T09:25:07.460Z,99419.80
2023-01-13T09:30:11.958Z,99413.20
2023-01-13T09:35:17.757Z,99418.60
2023-01-13T09:40:23.077Z,99412.40
2023-01-13T09:45:38.169Z,99407.40
2023-01-13T09:51:17.976Z,99414.40
2023-01-13T09:56:23.373Z,99416.60
2023-01-13T10:01:42.356Z,99413.40
2023-01-13T10:06:58.198Z,99409.60
2023-01-13T10:12:22.180Z,99397.60
2023-01-13T10:17:44.656Z,99387.80
2023-01-13T10:23:17.007Z,99385.60
2023-01-13T10:28:24.217Z,99379.00
2023-01-13T10:33:29.046Z,99379.80
2023-01-13T10:38:35.985Z,99382.40
2023-01-13T10:43:40.249Z,99386.60
2023-01-13T10:48:58.900Z,99390.60
2023-01-13T10:54:25.560Z,99390.00
2023-01-13T10:59:30.200Z,99391.60
2023-01-13T11:04:39.978Z,99393.00
2023-01-13T11:09:43.841Z,99397.20
2023-01-13T11:14:49.058Z,99382.60
2023-01-13T11:20:14.273Z,99379.00
2023-01-13T11:25:45.968Z,99386.00
2023-01-13T11:31:19.872Z,99381.60
2023-01-13T11:36:33.018Z,99386.00
2023-01-13T11:41:47.297Z,99381.60
2023-01-13T11:46:54.230Z,99382.60
2023-01-13T11:52:50.165Z,99377.60
2023-01-13T11:58:19.416Z,99382.00
2023-01-13T12:03:38.883Z,99388.40
2023-01-13T12:09:05.432Z,99391.40
2023-01-13T12:14:49.367Z,99386.80
2023-01-13T12:19:53.134Z,99392.60
2023-01-13T12:25:21.535Z,99389.00
2023-01-13T12:30:51.167Z,99386.40
2023-01-13T12:36:21.636Z,99383.20
2023-01-13T12:42:05.834Z,99391.20
2023-01-13T12:47:39.362Z,99396.80
2023-01-13T12:52:46.300Z,99387.80
2023-01-13T12:58:03.265Z,99390.80
2023-01-13T13:03:12.878Z,99395.80
2023-01-13T13:08:38.119Z,99391.20
2023-01-13T13:13:49.440Z,99393.20
2023-01-13T13:19:20.384Z,99397.40
2023-01-13T13:24:25.739Z,99393.40
2023-01-13T13:29:53.751Z,99403.00
2023-01-13T13:35:19.880Z,99409.60
2023-01-13T13:40:43.445Z,99413.40
2023-01-13T13:46:11.132Z,99411.80
2023-01-13T13:51:46.725Z,99414.20
2023-01-13T13:56:51.732Z,99415.40
2023-01-13T14:02:04.100Z,99421.40
2023-01-13T14:07:21.638Z,99420.20
2023-01-13T14:12:28.032Z,99414.40
2023-01-13T14:17:32.021Z,99411.80
2023-01-13T14:22:37.699Z,99412.80
2023-01-13T14:27:47.351Z,99414.60
2023-01-13T14:32:58.118Z,99418.60
2023-01-13T14:38:13.627Z,99422.00
2023-01-13T14:43:24.995Z,99426.20
2023-01-13T14:48:36.938Z,99436.80
2023-01-13T14:53:47.645Z,99424.00
2023-01-13T14:58:51.314Z,99416.80
2023-01-13T15:03:55.985Z,99422.40
2023-01-13T15:08:59.804Z,99426.80
2023-01-13T15:14:11.817Z,99427.40
2023-01-13T15:19:15.604Z,99427.80
2023-01-13T15:24:19.290Z,99431.40
2023-01-13T15:29:24.470Z,99435.80
2023-01-13T15:34:28.425Z,99439.40
2023-01-13T15:39:32.327Z,99440.40
2023-01-13T15:44:54.745Z,99444.00
2023-01-13T15:49:58.699Z,99444.00
2023-01-13T15:55:02.407Z,99450.80
2023-01-13T16:00:22.072Z,99449.80
2023-01-13T16:05:26.582Z,99451.80
2023-01-13T16:10:30.402Z,99458.60
2023-01-13T16:15:34.229Z,99448.20
2023-01-13T16:20:37.945Z,99438.60
2023-01-13T16:25:45.243Z,99435.00
2023-01-13T16:30:49.390Z,99440.20
2023-01-13T16:36:10.934Z,99436.80
2023-01-13T16:41:16.608Z,99436.40
2023-01-13T16:46:26.388Z,99448.40
2023-01-13T16:51:30.253Z,99457.60
2023-01-13T16:56:37.313Z,99458.60
2023-01-13T17:01:43.823Z,99455.40
2023-01-13T17:07:07.118Z,99458.20
2023-01-13T17:12:12.179Z,99466.80
2023-01-13T17:17:28.878Z,99447.20
2023-01-13T17:22:33.126Z,99464.60
2023-01-13T17:27:37.275Z,99463.40
2023-01-13T17:32:42.300Z,99463.20
2023-01-13T17:37:46.415Z,99472.40
2023-01-13T17:42:50.280Z,99473.20
2023-01-13T17:48:00.417Z,99470.80
2023-01-13T17:53:04.091Z,99470.80
2023-01-13T17:58:08.969Z,99466.00
2023-01-13T18:03:13.145Z,99470.20
2023-01-13T18:08:17.620Z,99471.40
2023-01-13T18:13:21.271Z,99479.40
2023-01-13T18:18:24.965Z,99482.80
2023-01-13T18:23:47.442Z,99484.40
2023-01-13T18:28:51.280Z,99497.60
2023-01-13T18:33:55.337Z,99491.80
2023-01-13T18:38:59.080Z,99502.20
2023-01-13T18:44:04.301Z,99501.00
2023-01-13T18:49:08.234Z,99504.20
2023-01-13T18:54:12.487Z,99515.00
2023-01-13T18:59:18.124Z,99514.40
2023-01-13T19:04:23.893Z,99521.80
2023-01-13T19:09:31.802Z,99515.60
2023-01-13T19:14:38.420Z,99528.40
2023-01-13T19:19:49.428Z,99536.60
2023-01-13T19:24:54.350Z,99539.40
2023-01-13T19:30:01.889Z,99549.00
2023-01-13T19:35:08.183Z,99547.60
2023-01-13T19:40:16.172Z,99554.80
2023-01-13T19:45:31.709Z,99560.60
2023-01-13T19:50:40.276Z,99554.40
2023-01-13T19:55:48.858Z,99560.20
2023-01-13T20:00:54.837Z,99558.60
2023-01-13T20:06:10.613Z,99560.20
2023-01-13T20:11:33.709Z,99573.20
2023-01-13T20:16:37.798Z,99575.60
2023-01-13T20:21:43.830Z,99585.20
2023-01-13T20:26:47.814Z,99586.60
2023-01-13T20:31:51.929Z,99587.80
2023-01-13T20:36:56.274Z,99590.80
2023-01-13T20:42:18.782Z,99591.40
2023-01-13T20:47:23.571Z,99593.00
2023-01-13T20:52:29.155Z,99606.00
2023-01-13T20:57:33.276Z,99605.00
2023-01-13T21:02:38.976Z,99611.40
2023-01-13T21:07:42.902Z,99607.80
2023-01-13T21:13:05.818Z,99609.80
2023-01-13T21:18:28.183Z,99620.80
2023-01-13T21:23:32.097Z,99609.20
2023-01-13T21:28:37.238Z,99612.80
2023-01-13T21:33:41.109Z,99623.40
2023-01-13T21:38:44.998Z,99626.80
2023-01-13T21:44:07.656Z,99624.00
2023-01-13T21:49:11.884Z,99625.20
2023-01-13T21:54:15.614Z,99619.40
2023-01-13T21:59:20.164Z,99618.60
2023-01-13T22:04:23.902Z,99620.80
2023-01-13T22:09:27.636Z,99614.80
2023-01-13T22:14:31.501Z,99612.80
2023-01-13T22:19:39.503Z,99614.00
2023-01-13T22:24:44.313Z,99618.60
2023-01-13T22:29:50.084Z,99624.60
2023-01-13T22:34:53.847Z,99629.60
2023-01-13T22:39:57.528Z,99632.00
2023-01-13T22:45:01.367Z,99636.20
2023-01-13T22:50:07.863Z,99642.60
2023-01-13T22:55:11.725Z,99641.80
2023-01-13T23:00:19.461Z,99649.40
2023-01-13T23:05:23.522Z,99651.40
2023-01-13T23:10:27.329Z,99644.00
2023-01-13T23:15:31.436Z,99650.20
2023-01-13T23:20:35.301Z,99653.60
2023-01-13T23:25:39.090Z,99660.20
2023-01-13T23:30:42.720Z,99652.00
2023-01-13T23:36:19.389Z,99648.20
2023-01-13T23:41:26.176Z,99648.00
2023-01-13T23:46:33.499Z,99643.00
2023-01-13T23:51:37.443Z,99646.20
2023-01-13T23:56:41.348Z,99642.80
